Time;durP1;ratioP1;P1;durP2;ratioP2;P2;SDS_P1;SDS_P2;PMS_P1;PMS_P2;Temp;Humidity;BMP_temperature;BMP_pressure;BME280_temperature;BME280_humidity;BME280_pressure;Samples;Min_cycle;Max_cycle;Signal;HPM_P1;HPM_P2
2020/12/16 00:00:45;;;;;;;5.78;4.32;;;9.60;71.30;;;;;;2100096;28;20028;-76
2020/12/16 00:01:45;;;;;;;8.52;4.22;;;9.60;71.20;;;;;;2106624;28;20497;-75
2020/12/16 00:02:46;;;;;;;4.85;4.43;;;9.50;71.20;;;;;;2111106;28;20051;-76
2020/12/16 00:03:46;;;;;;;5.13;4.57;;;9.50;71.20;;;;;;2112926;28;20016;-75
2020/12/16 00:04:47;;;;;;;5.07;4.63;;;9.50;71.90;;;;;;2112271;28;20547;-75
2020/12/16 00:05:48;;;;;;;5.53;4.20;;;9.50;71.20;;;;;;2104592;28;20603;-75
2020/12/16 00:06:48;;;;;;;16.10;5.47;;;9.50;71.30;;;;;;2096945;28;20044;-75
2020/12/16 00:07:49;;;;;;;5.25;4.75;;;9.50;71.30;;;;;;2104571;28;20024;-75
2020/12/16 00:08:50;;;;;;;6.03;5.40;;;9.50;71.30;;;;;;2114021;28;20027;-75
2020/12/16 00:09:50;;;;;;;6.13;5.50;;;9.50;71.40;;;;;;2114116;28;20775;-76
2020/12/16 00:10:51;;;;;;;7.57;5.72;;;9.50;71.40;;;;;;2113833;28;20046;-75
2020/12/16 00:11:51;;;;;;;8.65;6.30;;;9.50;71.50;;;;;;2114202;28;20020;-76
2020/12/16 00:12:52;;;;;;;8.82;6.50;;;9.50;71.60;;;;;;2113733;28;20072;-75
2020/12/16 00:13:52;;;;;;;6.93;6.22;;;9.50;71.70;;;;;;2113457;28;20048;-75
2020/12/16 00:14:53;;;;;;;8.05;6.57;;;9.50;71.80;;;;;;2113801;28;20036;-75
2020/12/16 00:15:53;;;;;;;7.45;6.32;;;9.50;71.80;;;;;;2113497;28;20035;-75
2020/12/16 00:16:54;;;;;;;11.73;6.82;;;9.40;71.90;;;;;;2112525;28;20062;-75
2020/12/16 00:17:55;;;;;;;6.82;6.13;;;9.40;71.90;;;;;;2114222;28;20027;-75
2020/12/16 00:18:55;;;;;;;5.93;5.32;;;9.50;72.00;;;;;;2113669;28;20028;-75
2020/12/16 00:19:56;;;;;;;7.35;5.82;;;9.50;72.10;;;;;;2112901;28;20023;-75
2020/12/16 00:20:56;;;;;;;7.60;6.10;;;9.40;71.90;;;;;;2114080;28;20043;-75
2020/12/16 00:22:00;;;;;;;7.10;6.35;;;9.50;72.10;;;;;;2113550;28;20035;-76
2020/12/16 00:23:00;;;;;;;10.00;6.18;;;9.40;72.10;;;;;;2113167;28;20089;-77
2020/12/16 00:24:01;;;;;;;8.45;6.50;;;9.50;72.20;;;;;;2114204;28;20047;-75
2020/12/16 00:25:02;;;;;;;6.28;5.68;;;9.50;72.20;;;;;;2112889;28;20112;-75
2020/12/16 00:26:03;;;;;;;9.07;5.97;;;9.50;72.10;;;;;;2113451;28;20034;-75
2020/12/16 00:27:04;;;;;;;7.43;5.80;;;9.40;72.10;;;;;;2113970;28;20043;-75
2020/12/16 00:28:05;;;;;;;7.60;6.03;;;9.40;72.10;;;;;;2113322;28;20015;-75
2020/12/16 00:29:05;;;;;;;7.07;6.38;;;9.40;72.10;;;;;;2113892;28;20504;-75
2020/12/16 00:30:07;;;;;;;7.68;5.53;;;9.50;72.10;;;;;;2113958;28;20038;-75
2020/12/16 00:31:08;;;;;;;6.20;5.60;;;9.50;72.00;;;;;;2112479;28;20632;-75
2020/12/16 00:32:09;;;;;;;6.55;5.82;;;9.40;71.90;;;;;;2104991;28;20024;-76
2020/12/16 00:33:09;;;;;;;8.55;5.57;;;9.40;72.00;;;;;;2104377;28;20055;-75
2020/12/16 00:34:10;;;;;;;5.95;5.30;;;9.40;71.90;;;;;;2113807;28;20059;-75
2020/12/16 00:35:10;;;;;;;7.20;5.80;;;9.50;71.90;;;;;;2104878;28;20020;-75
2020/12/16 00:36:11;;;;;;;8.15;5.13;;;9.40;71.80;;;;;;2104337;28;20035;-75
2020/12/16 00:37:11;;;;;;;5.72;5.20;;;9.40;71.70;;;;;;2104864;28;20075;-75
2020/12/16 00:38:12;;;;;;;5.97;5.38;;;9.40;71.70;;;;;;2105030;28;20055;-75
2020/12/16 00:39:13;;;;;;;5.93;5.40;;;9.40;71.60;;;;;;2113649;28;20031;-75
2020/12/16 00:40:16;;;;;;;6.82;5.97;;;9.50;71.60;;;;;;2113847;28;20035;-75
2020/12/16 00:41:16;;;;;;;5.82;5.25;;;9.40;71.50;;;;;;2114109;28;20031;-75
2020/12/16 00:42:17;;;;;;;6.03;5.43;;;9.40;71.50;;;;;;2112828;28;20031;-76
2020/12/16 00:43:17;;;;;;;5.93;5.32;;;9.40;71.40;;;;;;2113658;28;20030;-75
2020/12/16 00:44:18;;;;;;;6.35;5.13;;;9.40;71.40;;;;;;2113980;28;20039;-75
2020/12/16 00:45:19;;;;;;;6.07;5.47;;;9.40;71.40;;;;;;2113745;28;20846;-75
2020/12/16 00:46:19;;;;;;;5.80;5.20;;;9.40;71.50;;;;;;2113140;28;20027;-75
2020/12/16 00:47:20;;;;;;;5.70;5.20;;;9.40;71.50;;;;;;2113807;28;20019;-75
2020/12/16 00:48:20;;;;;;;5.60;5.10;;;9.40;71.50;;;;;;2113390;28;20029;-75
2020/12/16 00:49:21;;;;;;;6.53;5.18;;;9.40;71.50;;;;;;2113526;28;20028;-75
2020/12/16 00:50:22;;;;;;;6.25;5.00;;;9.40;71.80;;;;;;2113950;28;20020;-75
2020/12/16 00:51:22;;;;;;;6.53;5.70;;;9.40;71.70;;;;;;2113535;28;20042;-76
2020/12/16 00:52:27;;;;;;;6.28;5.50;;;9.40;71.70;;;;;;2113406;28;20458;-75
2020/12/16 00:53:27;;;;;;;5.75;5.05;;;9.40;71.90;;;;;;2113371;28;20449;-76
2020/12/16 00:54:28;;;;;;;5.55;4.97;;;9.30;71.80;;;;;;2104676;28;20036;-75
2020/12/16 00:55:28;;;;;;;6.65;5.93;;;9.40;71.90;;;;;;2104977;28;20111;-75
2020/12/16 00:56:29;;;;;;;5.80;5.20;;;9.40;72.00;;;;;;2113520;28;20036;-75
2020/12/16 00:57:29;;;;;;;6.03;5.35;;;9.40;72.10;;;;;;2113191;28;20111;-75
2020/12/16 00:58:30;;;;;;;5.47;4.97;;;9.40;72.10;;;;;;2113965;28;20078;-75
2020/12/16 00:59:31;;;;;;;6.50;4.90;;;9.30;72.10;;;;;;2113423;28;20034;-75
2020/12/16 01:00:31;;;;;;;6.10;5.43;;;9.30;72.00;;;;;;2113734;28;20035;-75
2020/12/16 01:01:32;;;;;;;5.95;5.35;;;9.30;72.00;;;;;;2104108;28;20094;-75
2020/12/16 01:02:32;;;;;;;6.43;5.40;;;9.30;72.00;;;;;;2104190;28;20358;-75
2020/12/16 01:03:33;;;;;;;5.10;4.53;;;9.30;72.70;;;;;;2112967;28;20039;-75
2020/12/16 01:04:33;;;;;;;5.32;4.82;;;9.40;72.00;;;;;;2104244;28;20024;-75
2020/12/16 01:05:34;;;;;;;8.38;5.20;;;9.30;71.80;;;;;;2104972;28;20519;-75
2020/12/16 01:06:37;;;;;;;6.28;5.38;;;9.30;71.80;;;;;;2113635;28;20453;-75
2020/12/16 01:07:40;;;;;;;5.70;4.93;;;9.30;71.80;;;;;;2101390;28;20129;-76
2020/12/16 01:08:41;;;;;;;5.47;4.93;;;9.30;71.80;;;;;;2102181;28;20028;-75
2020/12/16 01:09:41;;;;;;;5.88;5.35;;;9.30;71.70;;;;;;2113239;28;20809;-76
2020/12/16 01:10:42;;;;;;;6.00;5.03;;;9.30;71.70;;;;;;2113752;28;20027;-75
2020/12/16 01:11:43;;;;;;;6.35;5.32;;;9.30;71.60;;;;;;2104406;28;20016;-75
2020/12/16 01:12:45;;;;;;;7.85;5.22;;;9.30;71.60;;;;;;2104279;28;20182;-75
2020/12/16 01:13:46;;;;;;;6.10;4.80;;;9.30;72.30;;;;;;2113344;28;20028;-75
2020/12/16 01:14:47;;;;;;;8.55;5.13;;;9.30;71.50;;;;;;2112948;28;20036;-75
2020/12/16 01:15:47;;;;;;;6.00;5.18;;;9.30;71.50;;;;;;2113187;28;20035;-75
2020/12/16 01:16:48;;;;;;;5.88;5.28;;;9.30;71.50;;;;;;2112604;28;20020;-75
2020/12/16 01:17:49;;;;;;;6.00;5.40;;;9.30;71.60;;;;;;2112398;28;20084;-75
2020/12/16 01:18:50;;;;;;;5.70;5.20;;;9.30;71.60;;;;;;2113563;28;20023;-75
2020/12/16 01:19:50;;;;;;;5.75;5.15;;;9.30;71.70;;;;;;2113395;28;20056;-75
2020/12/16 01:20:51;;;;;;;5.57;5.07;;;9.30;71.70;;;;;;2104619;28;20043;-75
2020/12/16 01:21:51;;;;;;;8.13;5.28;;;9.30;71.70;;;;;;2104804;28;20016;-75
2020/12/16 01:22:52;;;;;;;5.72;5.22;;;9.30;71.60;;;;;;2112799;28;20024;-75
2020/12/16 01:23:52;;;;;;;5.55;5.00;;;9.30;71.60;;;;;;2113427;28;20032;-75
2020/12/16 01:24:53;;;;;;;5.63;5.13;;;9.30;71.70;;;;;;2113339;28;20123;-75
2020/12/16 01:25:54;;;;;;;5.90;5.28;;;9.20;71.50;;;;;;2104212;28;20020;-76
2020/12/16 01:26:54;;;;;;;6.18;4.85;;;9.30;71.60;;;;;;2104444;28;20027;-76
2020/12/16 01:27:57;;;;;;;5.32;4.82;;;9.30;71.60;;;;;;2112280;28;20074;-76
2020/12/16 01:28:58;;;;;;;5.55;4.75;;;9.20;71.50;;;;;;2103964;28;20012;-76
2020/12/16 01:29:59;;;;;;;6.55;5.20;;;9.20;71.50;;;;;;2101310;28;20036;-76
2020/12/16 01:31:00;;;;;;;5.65;5.00;;;9.20;71.50;;;;;;2113200;28;20034;-76
2020/12/16 01:32:00;;;;;;;5.10;4.65;;;9.20;71.60;;;;;;2112995;28;20023;-76
2020/12/16 01:33:01;;;;;;;5.88;5.38;;;9.20;71.60;;;;;;2112583;28;20098;-76
2020/12/16 01:34:01;;;;;;;5.20;4.80;;;9.20;71.60;;;;;;2103520;28;20032;-75
2020/12/16 01:35:07;;;;;;;5.68;5.18;;;9.20;71.50;;;;;;2104055;28;20028;-75
2020/12/16 01:36:10;;;;;;;7.75;5.18;;;9.20;71.50;;;;;;2105127;28;20100;-76
2020/12/16 01:37:10;;;;;;;5.75;5.15;;;9.20;71.50;;;;;;2113057;28;20043;-76
2020/12/16 01:38:11;;;;;;;5.78;5.20;;;9.20;71.50;;;;;;2113355;28;20023;-75
2020/12/16 01:39:14;;;;;;;5.75;4.97;;;9.20;71.50;;;;;;2113116;28;20028;-76
2020/12/16 01:40:14;;;;;;;5.72;5.07;;;9.20;71.50;;;;;;2100441;28;20024;-75
2020/12/16 01:41:15;;;;;;;6.07;5.22;;;9.20;71.40;;;;;;2100742;28;20092;-76
2020/12/16 01:42:15;;;;;;;5.32;4.82;;;9.20;71.40;;;;;;2113566;28;20394;-75
2020/12/16 01:43:16;;;;;;;5.97;5.28;;;9.20;71.40;;;;;;2112888;28;20357;-75
2020/12/16 01:44:20;;;;;;;5.82;5.32;;;9.20;71.40;;;;;;2112896;28;20466;-76
2020/12/16 01:45:22;;;;;;;6.85;5.18;;;9.20;71.50;;;;;;2104220;28;20081;-76
2020/12/16 01:46:23;;;;;;;6.15;5.38;;;9.10;71.60;;;;;;2103741;28;20639;-75
2020/12/16 01:47:23;;;;;;;7.82;5.28;;;9.10;71.50;;;;;;2113124;28;20023;-75
2020/12/16 01:48:24;;;;;;;6.45;5.30;;;9.10;71.50;;;;;;2113433;28;20423;-76
2020/12/16 01:49:25;;;;;;;6.45;4.97;;;9.10;71.50;;;;;;2103470;28;20085;-75
2020/12/16 01:50:26;;;;;;;7.25;5.53;;;9.10;71.50;;;;;;2095585;28;20059;-76
2020/12/16 01:51:29;;;;;;;5.85;5.28;;;9.10;71.60;;;;;;2100554;28;20095;-76
2020/12/16 01:52:31;;;;;;;6.28;5.68;;;9.10;71.60;;;;;;2112693;28;20042;-75
2020/12/16 01:53:32;;;;;;;5.93;5.07;;;9.10;71.60;;;;;;2113014;28;20055;-76
2020/12/16 01:54:35;;;;;;;6.40;5.15;;;9.10;71.60;;;;;;2113392;28;20040;-76
2020/12/16 01:55:36;;;;;;;5.90;5.30;;;9.10;71.60;;;;;;2112975;28;20035;-75
2020/12/16 01:56:40;;;;;;;6.65;5.70;;;9.10;71.70;;;;;;2112606;28;20027;-75
2020/12/16 01:57:47;;;;;;;6.43;5.40;;;9.10;71.70;;;;;;2113398;28;20032;-76
2020/12/16 01:58:51;;;;;;;6.53;5.60;;;9.10;71.80;;;;;;2113110;28;20019;-76
2020/12/16 01:59:52;;;;;;;8.15;5.82;;;9.10;72.50;;;;;;2103980;28;20028;-76
2020/12/16 02:00:54;;;;;;;8.80;5.60;;;9.10;71.80;;;;;;2095522;28;20040;-75
2020/12/16 02:01:55;;;;;;;6.28;5.50;;;9.10;71.90;;;;;;2100439;28;20107;-76
2020/12/16 02:02:59;;;;;;;5.75;5.25;;;9.10;71.90;;;;;;2102949;28;20095;-75
2020/12/16 02:04:02;;;;;;;7.03;5.95;;;9.10;71.90;;;;;;2104786;28;20442;-77
2020/12/16 02:05:03;;;;;;;5.80;5.22;;;9.10;72.60;;;;;;2104275;28;20020;-76
2020/12/16 02:06:06;;;;;;;6.63;5.10;;;9.10;71.90;;;;;;2104384;28;20013;-76
2020/12/16 02:07:09;;;;;;;5.72;5.07;;;9.10;71.80;;;;;;2104463;28;20043;-75
2020/12/16 02:08:12;;;;;;;7.93;5.47;;;9.10;71.80;;;;;;2103949;28;20024;-76
2020/12/16 02:09:13;;;;;;;6.53;5.50;;;9.10;71.80;;;;;;2112485;28;20031;-76
2020/12/16 02:10:14;;;;;;;5.80;5.25;;;9.10;71.80;;;;;;2113119;28;20649;-76
2020/12/16 02:11:14;;;;;;;7.32;6.10;;;9.10;71.90;;;;;;2112903;28;20081;-75
2020/12/16 02:12:18;;;;;;;6.88;6.18;;;9.10;72.00;;;;;;2113263;28;20031;-75
2020/12/16 02:13:19;;;;;;;6.47;5.82;;;9.10;72.10;;;;;;2113134;28;20042;-76
2020/12/16 02:14:20;;;;;;;7.43;5.88;;;9.10;72.20;;;;;;2112833;28;20115;-76
2020/12/16 02:15:20;;;;;;;5.78;5.28;;;9.10;72.20;;;;;;2112956;28;20023;-75
2020/12/16 02:16:21;;;;;;;6.38;5.65;;;9.10;72.30;;;;;;2112859;28;20505;-75
2020/12/16 02:17:21;;;;;;;6.63;5.78;;;9.10;72.30;;;;;;2103155;28;20684;-75
2020/12/16 02:18:22;;;;;;;8.13;5.78;;;9.10;72.20;;;;;;2103806;28;20048;-75
2020/12/16 02:19:25;;;;;;;7.43;5.72;;;9.10;72.20;;;;;;2113135;28;20024;-75
2020/12/16 02:20:26;;;;;;;6.10;5.50;;;9.10;72.20;;;;;;2112843;28;20424;-75
2020/12/16 02:21:27;;;;;;;7.85;6.00;;;9.10;72.10;;;;;;2113320;28;20031;-75
2020/12/16 02:22:28;;;;;;;6.05;5.45;;;9.10;72.10;;;;;;2112945;28;20070;-75
2020/12/16 02:23:32;;;;;;;6.40;5.40;;;9.10;72.10;;;;;;2112505;28;20024;-75
2020/12/16 02:24:33;;;;;;;6.18;5.57;;;9.10;72.10;;;;;;2113201;28;20031;-75
2020/12/16 02:25:34;;;;;;;5.30;4.82;;;9.10;72.10;;;;;;2112242;28;20038;-75
2020/12/16 02:26:37;;;;;;;5.47;4.97;;;9.10;72.10;;;;;;2112826;28;20067;-75
2020/12/16 02:27:40;;;;;;;6.13;5.45;;;9.10;72.10;;;;;;2112842;28;20038;-75
2020/12/16 02:28:42;;;;;;;6.00;5.13;;;9.10;72.10;;;;;;2112094;28;20600;-75
2020/12/16 02:29:42;;;;;;;5.72;5.22;;;9.10;72.10;;;;;;2091776;28;20016;-75
2020/12/16 02:30:43;;;;;;;5.95;5.35;;;9.10;72.20;;;;;;2092019;28;20458;-75
2020/12/16 02:31:46;;;;;;;6.20;5.60;;;9.10;72.20;;;;;;2111625;28;20569;-75
2020/12/16 02:32:47;;;;;;;5.50;5.00;;;9.10;72.10;;;;;;2111729;28;20161;-75
2020/12/16 02:33:47;;;;;;;5.75;5.25;;;9.10;72.80;;;;;;2113244;28;20032;-75
2020/12/16 02:34:48;;;;;;;6.90;5.38;;;9.10;72.20;;;;;;2102977;28;20442;-75
2020/12/16 02:35:48;;;;;;;6.05;5.45;;;9.10;72.30;;;;;;2103874;28;20478;-75
2020/12/16 02:36:49;;;;;;;6.13;5.45;;;9.10;72.30;;;;;;2104153;28;20034;-75
2020/12/16 02:37:49;;;;;;;5.72;5.25;;;9.20;72.40;;;;;;2103764;28;20466;-75
2020/12/16 02:38:51;;;;;;;6.10;5.53;;;9.10;72.50;;;;;;2104082;28;20109;-75
2020/12/16 02:39:52;;;;;;;7.85;6.32;;;9.10;72.50;;;;;;2104483;28;20062;-75
2020/12/16 02:40:53;;;;;;;7.85;5.90;;;9.20;72.60;;;;;;2112639;28;20098;-75
2020/12/16 02:42:08;;;;;;;6.82;6.13;;;9.20;72.70;;;;;;2112903;28;20107;-75
2020/12/16 02:43:08;;;;;;;6.13;5.53;;;9.20;72.90;;;;;;2112565;28;20020;-75
2020/12/16 02:44:11;;;;;;;9.38;5.93;;;9.20;72.90;;;;;;2112002;28;20353;-75
2020/12/16 02:45:12;;;;;;;6.68;5.47;;;9.20;72.90;;;;;;2112381;28;20381;-75
2020/12/16 02:46:13;;;;;;;6.68;5.22;;;9.20;72.90;;;;;;2112473;28;20031;-75
2020/12/16 02:47:14;;;;;;;8.27;5.63;;;9.20;73.00;;;;;;2112795;28;20042;-75
2020/12/16 02:48:14;;;;;;;8.60;6.18;;;9.20;73.00;;;;;;2112244;28;20106;-75
2020/12/16 02:49:15;;;;;;;7.43;5.47;;;9.20;73.00;;;;;;2104212;28;20103;-75
2020/12/16 02:50:15;;;;;;;6.43;5.80;;;9.20;73.00;;;;;;2104005;28;20028;-75
2020/12/16 02:51:16;;;;;;;9.13;6.07;;;9.20;73.10;;;;;;2112828;28;20019;-75
2020/12/16 02:52:17;;;;;;;8.82;6.57;;;9.20;73.10;;;;;;2113004;28;20383;-75
2020/12/16 02:53:17;;;;;;;7.22;6.50;;;9.20;73.10;;;;;;2112261;28;20114;-75
2020/12/16 02:54:18;;;;;;;7.43;6.68;;;9.20;73.10;;;;;;2112817;28;20023;-75
2020/12/16 02:55:18;;;;;;;7.15;5.68;;;9.20;73.20;;;;;;2112553;28;20026;-75
2020/12/16 02:56:19;;;;;;;6.40;5.82;;;9.20;73.20;;;;;;2112584;28;20136;-75
2020/12/16 02:57:19;;;;;;;8.00;6.32;;;9.20;73.20;;;;;;2113030;28;20023;-75
2020/12/16 02:58:20;;;;;;;9.23;6.65;;;9.20;73.20;;;;;;2104166;28;20028;-75
2020/12/16 02:59:25;;;;;;;6.57;5.88;;;9.20;73.20;;;;;;2103692;28;20020;-75
2020/12/16 03:00:26;;;;;;;7.30;5.97;;;9.20;73.30;;;;;;2112910;28;20061;-75
2020/12/16 03:01:26;;;;;;;8.50;6.15;;;9.30;73.20;;;;;;2103111;28;20173;-75
2020/12/16 03:02:27;;;;;;;7.47;6.00;;;9.20;73.20;;;;;;2103047;28;20027;-75
2020/12/16 03:03:27;;;;;;;6.15;5.55;;;9.20;73.20;;;;;;2112178;28;20030;-75
2020/12/16 03:04:28;;;;;;;7.75;6.22;;;9.20;73.20;;;;;;2112303;28;20034;-75
2020/12/16 03:05:28;;;;;;;6.43;5.82;;;9.20;73.20;;;;;;2112655;28;20027;-75
2020/12/16 03:06:29;;;;;;;7.13;6.43;;;9.20;73.20;;;;;;2113051;28;20040;-75
2020/12/16 03:07:30;;;;;;;6.85;6.15;;;9.20;73.20;;;;;;2112296;28;20051;-75
2020/12/16 03:08:30;;;;;;;8.27;6.32;;;9.30;73.30;;;;;;2112767;28;20040;-75
2020/12/16 03:09:31;;;;;;;7.68;6.18;;;9.20;73.30;;;;;;2112167;28;20081;-75
2020/12/16 03:10:31;;;;;;;6.63;5.93;;;9.20;73.30;;;;;;2111871;28;20462;-75
2020/12/16 03:11:32;;;;;;;7.78;6.30;;;9.20;73.30;;;;;;2112944;28;20442;-75
2020/12/16 03:12:33;;;;;;;7.80;7.00;;;9.30;73.40;;;;;;2103958;28;20032;-75
2020/12/16 03:13:33;;;;;;;7.68;6.43;;;9.20;73.30;;;;;;2103587;28;20069;-75
2020/12/16 03:14:34;;;;;;;7.70;6.30;;;9.20;73.30;;;;;;2112849;28;20043;-75
2020/12/16 03:15:34;;;;;;;6.78;5.97;;;9.20;73.30;;;;;;2112796;28;20168;-75
2020/12/16 03:16:35;;;;;;;6.65;6.03;;;9.20;73.30;;;;;;2111639;28;20031;-75
2020/12/16 03:17:36;;;;;;;8.75;5.97;;;9.20;73.30;;;;;;2112613;28;20050;-74
2020/12/16 03:18:37;;;;;;;7.10;6.40;;;9.30;73.30;;;;;;2112948;28;20484;-74
2020/12/16 03:19:38;;;;;;;10.52;6.22;;;9.30;73.30;;;;;;2112535;28;20046;-75
2020/12/16 03:20:38;;;;;;;7.43;6.72;;;9.20;73.30;;;;;;2112809;28;20063;-74
2020/12/16 03:21:39;;;;;;;7.43;6.70;;;9.20;73.30;;;;;;2112851;28;20031;-75
2020/12/16 03:22:40;;;;;;;7.30;6.43;;;9.30;73.30;;;;;;2112474;28;20019;-75
2020/12/16 03:23:40;;;;;;;7.25;6.55;;;9.30;73.30;;;;;;2113085;28;20023;-75
2020/12/16 03:24:41;;;;;;;7.82;6.55;;;9.20;73.30;;;;;;2099578;28;20111;-75
2020/12/16 03:25:41;;;;;;;10.00;6.68;;;9.20;73.30;;;;;;2099929;28;20029;-75
2020/12/16 03:26:42;;;;;;;7.15;6.55;;;9.20;73.30;;;;;;2103726;28;20028;-75
2020/12/16 03:27:42;;;;;;;7.30;6.60;;;9.20;73.30;;;;;;2103662;28;20052;-75
2020/12/16 03:28:43;;;;;;;7.32;6.63;;;9.20;73.40;;;;;;2103669;28;20020;-75
2020/12/16 03:29:44;;;;;;;8.38;6.45;;;9.20;73.50;;;;;;2103595;28;20024;-74
2020/12/16 03:30:44;;;;;;;7.07;6.38;;;9.20;73.50;;;;;;2112668;28;20038;-75
2020/12/16 03:31:45;;;;;;;8.70;6.15;;;9.20;73.50;;;;;;2112038;28;20027;-75
2020/12/16 03:32:45;;;;;;;14.48;7.10;;;9.20;73.60;;;;;;2112289;28;20027;-75
2020/12/16 03:33:46;;;;;;;7.07;6.38;;;9.30;73.70;;;;;;2112475;28;20438;-75
2020/12/16 03:34:47;;;;;;;7.43;6.72;;;9.20;73.70;;;;;;2103087;28;20028;-74
2020/12/16 03:35:48;;;;;;;8.77;6.53;;;9.20;73.80;;;;;;2103903;28;20020;-75
2020/12/16 03:36:48;;;;;;;6.47;5.80;;;9.20;73.80;;;;;;2112782;28;20023;-75
2020/12/16 03:37:49;;;;;;;6.95;6.22;;;9.20;73.80;;;;;;2112612;28;20104;-75
2020/12/16 03:38:49;;;;;;;7.25;6.40;;;9.20;73.80;;;;;;2100908;28;20031;-75
2020/12/16 03:39:50;;;;;;;7.05;6.35;;;9.30;74.00;;;;;;2101090;28;20397;-75
2020/12/16 03:40:51;;;;;;;8.88;6.82;;;9.20;74.00;;;;;;2114254;28;20034;-75
2020/12/16 03:41:51;;;;;;;7.38;6.53;;;9.20;74.00;;;;;;2114378;28;20027;-75
2020/12/16 03:42:52;;;;;;;9.93;7.00;;;9.20;74.00;;;;;;2113205;28;20354;-75
2020/12/16 03:43:52;;;;;;;7.05;6.35;;;9.20;74.00;;;;;;2114529;28;20099;-75
2020/12/16 03:44:53;;;;;;;6.97;6.38;;;9.20;74.00;;;;;;2113526;28;20042;-75
2020/12/16 03:45:53;;;;;;;8.60;6.72;;;9.20;74.00;;;;;;2105260;28;20012;-75
2020/12/16 03:46:54;;;;;;;8.07;6.40;;;9.30;74.10;;;;;;2088336;28;20036;-74
2020/12/16 03:47:55;;;;;;;6.03;5.47;;;9.20;73.90;;;;;;2088749;28;20025;-75
2020/12/16 03:48:56;;;;;;;7.35;6.65;;;9.20;74.00;;;;;;2105745;28;20023;-75
2020/12/16 03:49:56;;;;;;;6.65;5.75;;;9.30;74.00;;;;;;2114139;28;20031;-75
2020/12/16 03:50:57;;;;;;;8.02;6.10;;;9.20;73.80;;;;;;2104877;28;20394;-75
2020/12/16 03:51:57;;;;;;;7.65;6.63;;;9.30;73.90;;;;;;2105534;28;20028;-76
2020/12/16 03:52:58;;;;;;;8.18;6.90;;;9.30;73.80;;;;;;2113828;28;20035;-75
2020/12/16 03:53:58;;;;;;;7.57;6.32;;;9.20;73.70;;;;;;2114002;28;20115;-75
2020/12/16 03:54:59;;;;;;;7.97;6.43;;;9.20;73.60;;;;;;2114343;28;20095;-75
2020/12/16 03:56:12;;;;;;;8.68;6.40;;;9.30;73.70;;;;;;2114110;28;20049;-75
2020/12/16 03:57:13;;;;;;;8.57;6.55;;;9.30;73.80;;;;;;2113900;28;20144;-75
2020/12/16 03:58:14;;;;;;;7.05;5.95;;;9.30;73.70;;;;;;2105518;28;20032;-75
2020/12/16 03:59:15;;;;;;;7.05;6.35;;;9.30;73.70;;;;;;2104747;28;20073;-75
2020/12/16 04:00:15;;;;;;;7.78;6.55;;;9.20;73.60;;;;;;2114221;28;20058;-75
2020/12/16 04:01:18;;;;;;;7.47;6.00;;;9.20;73.70;;;;;;2104826;28;20444;-75
2020/12/16 04:02:19;;;;;;;6.97;6.25;;;9.20;73.70;;;;;;2104687;28;20381;-75
2020/12/16 04:03:19;;;;;;;7.65;6.63;;;9.30;73.70;;;;;;2114026;28;20028;-75
2020/12/16 04:04:20;;;;;;;7.43;6.30;;;9.20;73.60;;;;;;2113489;28;20020;-75
2020/12/16 04:05:20;;;;;;;9.85;5.90;;;9.20;73.50;;;;;;2113776;28;20387;-75
2020/12/16 04:06:21;;;;;;;7.60;6.10;;;9.20;73.50;;;;;;2105005;28;20016;-75
2020/12/16 04:07:22;;;;;;;6.32;5.75;;;9.20;73.30;;;;;;2105380;28;20040;-75
2020/12/16 04:08:22;;;;;;;7.70;6.20;;;9.30;73.30;;;;;;2113726;28;20468;-75
2020/12/16 04:09:25;;;;;;;10.90;5.75;;;9.20;73.20;;;;;;2104859;28;20606;-75
2020/12/16 04:10:26;;;;;;;6.80;6.10;;;9.20;73.20;;;;;;2105466;28;20032;-75
2020/12/16 04:11:27;;;;;;;7.55;6.80;;;9.20;73.20;;;;;;2113654;28;20461;-75
2020/12/16 04:12:27;;;;;;;7.05;6.35;;;9.20;73.30;;;;;;2113542;28;20031;-75
2020/12/16 04:13:28;;;;;;;7.15;6.45;;;9.20;73.30;;;;;;2114171;28;20031;-75
2020/12/16 04:14:28;;;;;;;7.30;6.60;;;9.20;73.40;;;;;;2113907;28;20532;-76
2020/12/16 04:15:29;;;;;;;8.45;6.70;;;9.20;73.40;;;;;;2112909;28;20339;-75
2020/12/16 04:16:30;;;;;;;6.70;6.10;;;9.20;73.40;;;;;;2113374;28;20456;-75
2020/12/16 04:17:33;;;;;;;8.88;6.60;;;9.20;73.50;;;;;;2104474;28;20465;-75
2020/12/16 04:18:34;;;;;;;6.82;5.93;;;9.20;73.50;;;;;;2105748;28;20166;-76
2020/12/16 04:19:35;;;;;;;7.57;6.68;;;9.20;73.50;;;;;;2114040;28;20449;-75
2020/12/16 04:20:36;;;;;;;6.72;6.13;;;9.20;73.50;;;;;;2096484;28;20066;-75
2020/12/16 04:21:36;;;;;;;7.32;6.30;;;9.20;73.50;;;;;;2096952;28;20112;-75
2020/12/16 04:22:37;;;;;;;6.93;6.22;;;9.20;73.60;;;;;;2113434;28;20031;-76
2020/12/16 04:23:38;;;;;;;8.52;6.88;;;9.20;73.60;;;;;;2113811;28;20036;-76
2020/12/16 04:24:39;;;;;;;7.20;6.50;;;9.10;73.50;;;;;;2113656;28;20019;-77
2020/12/16 04:25:40;;;;;;;6.93;6.22;;;9.20;73.60;;;;;;2113834;28;20326;-75
2020/12/16 04:26:40;;;;;;;7.82;6.32;;;9.10;73.50;;;;;;2113903;28;20088;-75
2020/12/16 04:27:41;;;;;;;8.55;6.60;;;9.10;73.50;;;;;;2113582;28;20028;-75
2020/12/16 04:28:41;;;;;;;6.70;6.00;;;9.10;73.50;;;;;;2113853;28;20107;-75
2020/12/16 04:29:42;;;;;;;8.02;7.10;;;9.10;73.50;;;;;;2113760;28;20019;-75
2020/12/16 04:30:43;;;;;;;7.07;6.38;;;9.10;73.50;;;;;;2113571;28;20315;-75
2020/12/16 04:31:47;;;;;;;6.65;6.03;;;9.10;73.40;;;;;;2103866;28;20109;-76
2020/12/16 04:33:00;;;;;;;8.07;6.18;;;9.10;73.40;;;;;;2104678;28;20032;-76
2020/12/16 04:34:00;;;;;;;6.68;6.00;;;9.10;73.40;;;;;;2113657;28;20100;-76
2020/12/16 04:35:01;;;;;;;7.90;6.63;;;9.10;73.40;;;;;;2113837;28;20475;-75
2020/12/16 04:36:02;;;;;;;7.72;6.10;;;9.10;73.40;;;;;;2113836;28;20442;-75
2020/12/16 04:37:03;;;;;;;7.50;6.78;;;9.10;73.40;;;;;;2114138;28;20110;-75
2020/12/16 04:38:04;;;;;;;8.43;6.25;;;9.10;73.50;;;;;;2112959;28;20527;-75
2020/12/16 04:39:04;;;;;;;6.68;5.95;;;9.10;73.50;;;;;;2113816;28;20015;-75
2020/12/16 04:40:05;;;;;;;6.90;6.20;;;9.10;73.60;;;;;;2114036;28;20036;-75
2020/12/16 04:41:09;;;;;;;6.38;5.78;;;9.10;73.60;;;;;;2113810;28;20023;-75
2020/12/16 04:42:09;;;;;;;8.27;6.63;;;9.10;73.60;;;;;;2113964;28;20042;-75
2020/12/16 04:43:16;;;;;;;7.53;6.75;;;9.10;73.60;;;;;;2113013;28;20026;-75
2020/12/16 04:44:17;;;;;;;7.60;6.88;;;9.10;73.60;;;;;;2113225;28;20023;-75
2020/12/16 04:45:17;;;;;;;8.57;6.93;;;9.10;73.60;;;;;;2113926;28;20019;-75
2020/12/16 04:46:21;;;;;;;8.10;6.72;;;9.10;73.60;;;;;;2112726;28;20019;-75
2020/12/16 04:47:22;;;;;;;7.72;6.55;;;9.10;73.60;;;;;;2113664;28;20438;-75
2020/12/16 04:48:22;;;;;;;7.93;7.10;;;9.10;73.50;;;;;;2104350;28;20035;-75
2020/12/16 04:49:23;;;;;;;7.80;7.00;;;9.10;73.50;;;;;;2105094;28;20264;-75
2020/12/16 04:50:25;;;;;;;8.38;7.07;;;9.10;73.60;;;;;;2113885;28;20024;-76
2020/12/16 04:51:26;;;;;;;7.43;6.55;;;9.10;73.60;;;;;;2113178;28;20088;-75
2020/12/16 04:52:28;;;;;;;6.93;6.22;;;9.10;73.60;;;;;;2112799;28;20020;-75
2020/12/16 04:53:29;;;;;;;7.75;6.95;;;9.10;73.70;;;;;;2113149;28;20027;-75
2020/12/16 04:54:29;;;;;;;7.43;6.60;;;9.10;73.60;;;;;;2113844;28;20028;-75
2020/12/16 04:55:31;;;;;;;6.97;6.25;;;9.10;73.60;;;;;;2113850;28;20039;-75
2020/12/16 04:56:33;;;;;;;7.97;6.78;;;9.10;73.60;;;;;;2113342;28;20032;-75
2020/12/16 04:57:34;;;;;;;8.85;7.10;;;9.10;73.60;;;;;;2113910;28;20511;-75
2020/12/16 04:58:34;;;;;;;7.85;6.75;;;9.10;73.50;;;;;;2113413;28;20089;-76
2020/12/16 04:59:35;;;;;;;9.48;6.95;;;9.00;73.40;;;;;;2113398;28;20027;-75
2020/12/16 05:00:37;;;;;;;7.00;6.30;;;9.00;73.40;;;;;;2104174;28;20826;-75
2020/12/16 05:01:41;;;;;;;8.27;6.53;;;9.00;73.30;;;;;;2103553;28;20040;-75
2020/12/16 05:02:59;;;;;;;6.45;5.85;;;9.00;73.30;;;;;;2103860;28;20024;-75
2020/12/16 05:03:59;;;;;;;6.85;6.15;;;9.00;73.30;;;;;;2106917;28;20103;-75
2020/12/16 05:05:00;;;;;;;7.18;6.47;;;9.00;73.20;;;;;;2113681;28;20084;-76
2020/12/16 05:06:00;;;;;;;8.27;6.60;;;9.00;73.30;;;;;;2112940;28;20027;-76
2020/12/16 05:07:01;;;;;;;8.88;6.38;;;9.00;73.30;;;;;;2113464;28;20032;-75
2020/12/16 05:08:09;;;;;;;7.07;6.30;;;9.00;73.30;;;;;;2113261;28;20114;-75
2020/12/16 05:09:15;;;;;;;7.22;6.30;;;9.00;73.40;;;;;;2113122;28;20027;-75
2020/12/16 05:10:37;;;;;;;8.10;6.22;;;9.00;73.30;;;;;;2113003;28;20428;-75
2020/12/16 05:11:48;;;;;;;7.38;6.25;;;9.00;73.30;;;;;;2113288;28;20047;-75
2020/12/16 05:13:04;;;;;;;10.02;5.95;;;9.00;73.10;;;;;;2113524;28;20501;-75
2020/12/16 05:14:24;;;;;;;10.43;6.15;;;9.00;73.10;;;;;;2113332;28;20077;-74
2020/12/16 05:15:25;;;;;;;8.50;6.38;;;9.00;72.90;;;;;;2113154;28;20059;-76
2020/12/16 05:16:25;;;;;;;8.40;6.35;;;9.00;72.80;;;;;;2112937;28;20036;-75
2020/12/16 05:17:26;;;;;;;7.03;6.28;;;9.00;72.60;;;;;;2113415;28;20126;-75
2020/12/16 05:18:27;;;;;;;6.85;6.15;;;9.00;72.60;;;;;;2113590;28;20032;-76
2020/12/16 05:19:39;;;;;;;7.63;6.75;;;8.90;72.60;;;;;;2104748;28;20450;-75
2020/12/16 05:20:42;;;;;;;7.65;6.18;;;8.90;72.70;;;;;;2106370;28;20028;-76
2020/12/16 05:21:43;;;;;;;10.20;6.43;;;8.90;72.90;;;;;;2113520;28;20050;-76
2020/12/16 05:22:43;;;;;;;9.13;6.80;;;8.90;72.90;;;;;;2113366;28;20380;-76
2020/12/16 05:23:44;;;;;;;8.60;6.55;;;8.90;73.00;;;;;;2113504;28;20465;-75
2020/12/16 05:24:47;;;;;;;9.30;6.85;;;8.90;73.10;;;;;;2113914;28;20038;-76